Flight Track Log - Related Links

Times and Time Zones

All times are in EDT time to prevent confusion due to time zone crossing. See the N495RD flight status page for this flight to view local times or setup timezone preferences in your user account.

Time Position Orientation Groundspeed Altitude Reporting Facility
EDT Latitude Longitude Course Direction KTS MPH feet Rate Location/Type
Thu 03:37:02 PM 41.6092 -109.0969 330° Northwest 87 100 7,600  Level Salt Lake Center
Thu 03:38:04 PM 41.6347 -109.1169 330° Northwest 108 124 8,000 435 Climbing Salt Lake Center
Thu 03:39:06 PM 41.6642 -109.1433 326° Northwest 109 125 8,500 435 Climbing Salt Lake Center
Thu 03:40:08 PM 41.6911 -109.1703 323° Northwest 118 136 8,900 484 Climbing Salt Lake Center
Thu 03:42:12 PM 41.7489 -109.2300 322° Northwest 123 142 10,000 484 Climbing Salt Lake Center
Thu 03:43:14 PM 41.7742 -109.2558 323° Northwest 123 142 10,400 435 Climbing Salt Lake Center
Thu 03:44:16 PM 41.8011 -109.2828 323° Northwest 115 132 10,900 435 Climbing Salt Lake Center
Thu 03:45:18 PM 41.8261 -109.3097 321° Northwest 116 133 11,300 435 Climbing Salt Lake Center
Thu 03:46:20 PM 41.8597 -109.3453 322° Northwest 128 147 11,800 387 Climbing Salt Lake Center
Thu 03:47:22 PM 41.8869 -109.3731 323° Northwest 129 148 12,100 339 Climbing Salt Lake Center
Thu 03:48:24 PM 41.9181 -109.4075 321° Northwest 129 148 12,500 290 Climbing Salt Lake Center
Thu 03:49:26 PM 41.9417 -109.4322 322° Northwest 123 142 12,700 242 Climbing Salt Lake Center
Thu 03:50:28 PM 41.9697 -109.4614 322° Northwest 119 137 13,000 240 Climbing Salt Lake Center
Thu 03:51:31 PM 41.9958 -109.4883 323° Northwest 119 137 13,200 192 Climbing Salt Lake Center
Thu 03:52:33 PM 42.0264 -109.5222 321° Northwest 122 140 13,400 194 Climbing Salt Lake Center
Thu 03:53:35 PM 42.0486 -109.5461 321° Northwest 119 137 13,600 290 Climbing Salt Lake Center
Thu 03:54:37 PM 42.0756 -109.5736 323° Northwest 113 130 14,000 242 Climbing Salt Lake Center
Thu 03:55:39 PM 42.1003 -109.6000 322° Northwest 113 130 14,100 48 Climbing Salt Lake Center
Thu 03:56:41 PM 42.1333 -109.6353 322° Northwest 125 144 14,100 48 Level Salt Lake Center
Thu 03:57:43 PM 42.1650 -109.6697 321° Northwest 140 161 14,200  Climbing Salt Lake Center
Thu 03:58:45 PM 42.2036 -109.7100 322° Northwest 152 175 14,100 -48 Descending Salt Lake Center
Thu 03:59:47 PM 42.2364 -109.7456 321° Northwest 154 177 14,100 48 Level Salt Lake Center
Thu 04:00:49 PM 42.2742 -109.7856 322° Northwest 155 178 14,200 48 Climbing Salt Lake Center
Thu 04:01:51 PM 42.3103 -109.8194 325° Northwest 158 182 14,200 -48 Level Salt Lake Center
Thu 04:02:53 PM 42.3522 -109.8567 327° Northwest 160 184 14,100 -48 Descending Salt Lake Center
Thu 04:03:55 PM 42.3892 -109.8864 329° Northwest 160 184 14,100  Level Salt Lake Center
Thu 04:04:57 PM 42.4250 -109.9153 329° Northwest 160 184 14,100  Level Salt Lake Center
Thu 04:05:59 PM 42.4694 -109.9547 327° Northwest 164 189 14,100  Level Salt Lake Center
Thu 04:07:01 PM 42.5083 -109.9856 330° Northwest 167 192 14,100  Level Salt Lake Center
Thu 04:08:03 PM 42.5383 -110.0361 309° West 159 183 14,100 48 Level Salt Lake Center
Thu 04:09:05 PM 42.5631 -110.0844 305° West 159 183 14,200  Climbing Salt Lake Center
Thu 04:10:07 PM 42.5922 -110.1339 309° West 158 182 14,100 -48 Descending Salt Lake Center
Thu 04:11:09 PM 42.6208 -110.1719 316° Northwest 156 180 14,100  Level Salt Lake Center
Thu 04:12:11 PM 42.6564 -110.2172 317° Northwest 156 180 14,100  Level Salt Lake Center
Thu 04:13:13 PM 42.6861 -110.2569 316° Northwest 156 180 14,100  Level Salt Lake Center
Thu 04:14:15 PM 42.7200 -110.3031 315° West 156 180 14,100 48 Level Salt Lake Center
Thu 04:15:17 PM 42.7492 -110.3417 316° Northwest 156 180 14,200  Climbing Salt Lake Center
Thu 04:16:19 PM 42.7814 -110.3878 314° West 155 178 14,100 -48 Descending Salt Lake Center
Thu 04:17:21 PM 42.8111 -110.4261 317° Northwest 155 178 14,100 48 Level Salt Lake Center
Thu 04:18:23 PM 42.8458 -110.4728 315° West 155 178 14,200 48 Climbing Salt Lake Center
Thu 04:19:25 PM 42.8756 -110.5136 315° West 155 178 14,200  Level Salt Lake Center
Thu 04:20:27 PM 42.9078 -110.5550 317° Northwest 160 184 14,200 -97 Level Salt Lake Center
Thu 04:21:29 PM 42.9444 -110.6058 315° West 162 186 14,000 -97 Descending Salt Lake Center
Thu 04:22:31 PM 42.9803 -110.6511 317° Northwest 166 191 14,000  Level Salt Lake Center
Thu 04:23:33 PM 43.0125 -110.6981 313° West 169 194 14,000 48 Level Salt Lake Center
Thu 04:24:35 PM 43.0469 -110.7439 316° Northwest 169 194 14,100  Climbing Salt Lake Center
Thu 04:25:36 PM 43.0778 -110.7839 317° Northwest 157 181 14,000 -49 Descending Salt Lake Center
Thu 04:26:38 PM 43.1000 -110.8172 312° West 123 142 14,000 48 Level Salt Lake Center
Thu 04:27:40 PM 43.1278 -110.8536 316° Northwest 142 163 14,100 97 Climbing Salt Lake Center
Thu 04:28:42 PM 43.1647 -110.9067 314° West 160 184 14,200 48 Climbing Salt Lake Center
Thu 04:29:44 PM 43.1967 -110.9508 315° West 159 183 14,200 -97 Level Salt Lake Center
Thu 04:30:46 PM 43.2325 -110.9992 316° Northwest 176 203 14,000 -48 Descending Salt Lake Center
Thu 04:31:48 PM 43.2661 -111.0461 315° West 175 201 14,100 48 Climbing Salt Lake Center
Thu 04:32:50 PM 43.2992 -111.0925 314° West 173 199 14,100  Level Salt Lake Center
Thu 04:33:52 PM 43.3319 -111.1392 314° West 171 197 14,100  Level Salt Lake Center
Thu 04:34:54 PM 43.3656 -111.1847 315° West 170 196 14,100 49 Level Salt Lake Center
Thu 04:35:55 PM 43.3983 -111.2331 313° West 170 196 14,200 49 Climbing Salt Lake Center
Thu 04:36:57 PM 43.4375 -111.2853 316° Northwest 168 193 14,200 -48 Level Salt Lake Center
Thu 04:37:59 PM 43.4697 -111.3283 316° Northwest 168 193 14,100 -48 Descending Salt Lake Center
Thu 04:39:01 PM 43.5022 -111.3747 314° West 169 194 14,100  Level Salt Lake Center
Thu 04:40:03 PM 43.5408 -111.4286 315° West 171 197 14,100 48 Level Salt Lake Center
Thu 04:41:05 PM 43.5764 -111.4672 322° Northwest 172 198 14,200 48 Climbing Salt Lake Center
Thu 04:42:07 PM 43.6122 -111.5158 316° Northwest 172 198 14,200 48 Level Salt Lake Center
Thu 04:43:09 PM 43.6433 -111.5600 314° West 166 191 14,300 -49 Climbing Salt Lake Center
Thu 04:44:10 PM 43.6839 -111.6164 315° West 175 201 14,100 -49 Descending Salt Lake Center
Thu 04:45:12 PM 43.7169 -111.6656 313° West 177 204 14,200  Climbing Salt Lake Center
Thu 04:46:14 PM 43.7547 -111.7197 314° West 177 204 14,100 -48 Descending Salt Lake Center
Thu 04:47:16 PM 43.7844 -111.7653 312° West 174 200 14,100 48 Level Salt Lake Center
Thu 04:48:18 PM 43.8156 -111.8094 314° West 172 198 14,200 48 Climbing Salt Lake Center
Thu 04:49:20 PM 43.8522 -111.8614 314° West 172 198 14,200  Level Salt Lake Center
Thu 04:50:22 PM 43.8831 -111.9067 313° West 172 198 14,200 -49 Level Salt Lake Center
Thu 04:51:23 PM 43.9172 -111.9581 313° West 169 194 14,100  Descending Salt Lake Center
Thu 04:52:25 PM 43.9469 -112.0006 314° West 166 191 14,200 48 Climbing Salt Lake Center
Thu 04:53:27 PM 43.9803 -112.0494 313° West 162 186 14,200 -48 Level Salt Lake Center
Thu 04:54:29 PM 44.0089 -112.0911 314° West 160 184 14,100  Descending Salt Lake Center
Thu 04:55:31 PM 44.0439 -112.1408 314° West 160 184 14,200  Climbing Salt Lake Center
Thu 04:56:33 PM 44.0728 -112.1858 312° West 160 184 14,100 -48 Descending Salt Lake Center
Thu 04:57:35 PM 44.1025 -112.2325 312° West 161 185 14,100 49 Level Salt Lake Center
Thu 04:58:36 PM 44.1317 -112.2928 304° West 164 189 14,200  Climbing Salt Lake Center
Thu 04:59:38 PM 44.1578 -112.3442 305° West 165 190 14,100  Descending Salt Lake Center
Thu 05:00:40 PM 44.1894 -112.4039 306° West 166 191 14,200 48 Climbing Salt Lake Center
Thu 05:01:42 PM 44.2153 -112.4550 305° West 166 191 14,200 -48 Level Salt Lake Center
Thu 05:02:44 PM 44.2436 -112.5119 305° West 166 191 14,100 -98 Descending Salt Lake Center
Thu 05:03:45 PM 44.2681 -112.5583 306° West 161 185 14,000  Descending Salt Lake Center
Thu 05:04:47 PM 44.2914 -112.6047 305° West 157 181 14,100 48 Climbing Salt Lake Center
Thu 05:05:49 PM 44.3189 -112.6597 305° West 157 181 14,100  Level Salt Lake Center
Thu 05:06:51 PM 44.3428 -112.7050 306° West 157 181 14,100  Level Salt Lake Center
Thu 05:07:53 PM 44.3708 -112.7592 306° West 156 180 14,100  Level Salt Lake Center
Thu 05:08:55 PM 44.3936 -112.8056 305° West 156 180 14,100 49 Level Salt Lake Center
Thu 05:09:56 PM 44.4214 -112.8628 304° West 156 180 14,200 98 Climbing Salt Lake Center
Thu 05:10:58 PM 44.4478 -112.9117 307° West 157 181 14,300 48 Climbing Salt Lake Center
Thu 05:12:00 PM 44.4711 -112.9611 303° West 157 181 14,300  Level Salt Lake Center
Thu 05:13:02 PM 44.4975 -113.0128 306° West 155 178 14,300  Level Salt Lake Center
Thu 05:14:04 PM 44.5147 -113.0528 301° West 141 162 14,300  Level Salt Lake Center
Thu 05:15:06 PM 44.5389 -113.1006 305° West 138 159 14,300 48 Level Salt Lake Center
Thu 05:16:08 PM 44.5658 -113.1536 305° West 146 168 14,400 98 Climbing Salt Lake Center
Thu 05:17:09 PM 44.5933 -113.2125 303° West 155 178 14,500 -49 Climbing Salt Lake Center
Thu 05:18:11 PM 44.6147 -113.2578 304° West 155 178 14,300 -50 Descending Salt Lake Center
Thu 05:23:09 PM 44.7469 -113.5186 304° West 166 191 14,200 -33 Descending Salt Lake Center
Thu 05:24:11 PM 44.7772 -113.5817 304° West 166 191 14,100 -97 Descending Salt Lake Center
Thu 05:25:13 PM 44.8039 -113.6347 305° West 169 194 14,000 -145 Descending Salt Lake Center
Thu 05:26:15 PM 44.8336 -113.6956 305° West 169 194 13,800 -194 Descending Salt Lake Center
Thu 05:27:00 PM 44.8361 -113.7095 305° West  Level FlightAware Approximate
Thu 05:27:17 PM 44.8608 -113.7492 306° West 169 194 13,600  Level Salt Lake Center
Thu 05:28:00 PM 44.8611 -113.7610 304° West  Level FlightAware Approximate
Thu 05:28:19 PM 44.8861 -113.8006 305° West 170 196 13,500  Level Salt Lake Center
Thu 05:29:21 PM 44.9142 -113.8625 303° West 169 194 13,600 194 Climbing Salt Lake Center
Thu 05:30:23 PM 44.9386 -113.9119 305° West 167 192 13,900 290 Climbing Salt Lake Center
Thu 05:31:25 PM 44.9650 -113.9631 306° West 155 178 14,200 290 Climbing Salt Lake Center
Thu 05:32:27 PM 44.9850 -114.0061 303° West 138 159 14,500 290 Climbing Salt Lake Center
Thu 05:33:29 PM 45.0011 -114.0428 302° West 118 136 14,800 290 Climbing Salt Lake Center
Thu 05:34:31 PM 45.0192 -114.0794 305° West 116 133 15,100 339 Climbing Salt Lake Center
Thu 05:35:33 PM 45.0408 -114.1206 307° West 113 130 15,500 387 Climbing Salt Lake Center
Thu 05:36:35 PM 45.0608 -114.1594 306° West 118 136 15,900 339 Climbing Salt Lake Center
Thu 05:37:37 PM 45.0781 -114.1961 304° West 119 137 16,200 240 Climbing Salt Lake Center
Thu 05:38:40 PM 45.0994 -114.2350 308° West 119 137 16,400 48 Climbing Salt Lake Center
Thu 05:39:42 PM 45.1219 -114.2822 304° West 135 155 16,300 -48 Descending Salt Lake Center
Thu 05:40:44 PM 45.1525 -114.3394 307° West 147 169 16,300 48 Level Salt Lake Center
Thu 05:41:47 PM 45.1753 -114.3844 306° West 146 168 16,400 -35 Climbing Salt Lake Center
Thu 05:43:34 PM 45.2200 -114.4753 305° West 149 171 16,200 -71 Descending Seattle Center
Thu 05:44:35 PM 45.2464 -114.5239 308° West 151 174 16,200  Level Seattle Center
Thu 05:45:36 PM 45.2697 -114.5728 304° West 151 174 16,200  Level Seattle Center
Thu 05:46:37 PM 45.2939 -114.6219 305° West 151 174 16,200 49 Level Seattle Center
Thu 05:47:39 PM 45.3178 -114.6692 306° West 151 174 16,300  Climbing Seattle Center
Thu 05:48:40 PM 45.3411 -114.7178 304° West 151 174 16,200 -49 Descending Seattle Center
Thu 05:49:41 PM 45.3672 -114.7667 307° West 151 174 16,200  Level Seattle Center
Thu 05:50:43 PM 45.3942 -114.8203 306° West 156 180 16,200 49 Level Seattle Center
Thu 05:51:44 PM 45.4267 -114.8872 305° West 166 191 16,300  Climbing Seattle Center
Thu 05:52:45 PM 45.4547 -114.9406 307° West 166 191 16,200 -49 Descending Seattle Center
Thu 05:53:47 PM 45.4800 -114.9936 304° West 166 191 16,200  Level Seattle Center
Thu 05:54:48 PM 45.5056 -115.0467 305° West 165 190 16,200 -49 Level Seattle Center
Thu 05:55:49 PM 45.5328 -115.0997 306° West 163 188 16,100 -49 Descending Seattle Center
Thu 05:56:51 PM 45.5603 -115.1533 306° West 164 189 16,100  Level Seattle Center
Thu 05:57:52 PM 45.5856 -115.2067 304° West 164 189 16,100  Level Seattle Center
Thu 05:58:54 PM 45.6114 -115.2594 305° West 164 189 16,100  Level Seattle Center
Thu 05:59:55 PM 45.6439 -115.3264 305° West 167 192 16,100  Level Seattle Center
Thu 06:00:56 PM 45.6714 -115.3825 305° West 168 193 16,100  Level Seattle Center
Thu 06:01:58 PM 45.6989 -115.4372 306° West 169 194 16,100 49 Level Seattle Center
Thu 06:02:59 PM 45.7228 -115.4881 304° West 169 194 16,200  Climbing Seattle Center
Thu 06:04:00 PM 45.7506 -115.5447 305° West 169 194 16,100 -49 Descending Seattle Center
Thu 06:05:02 PM 45.7769 -115.5986 305° West 169 194 16,100  Level Seattle Center
Thu 06:06:03 PM 45.8022 -115.6511 305° West 166 191 16,100  Level Seattle Center
Thu 06:08:06 PM 45.8583 -115.7664 305° West 162 186 16,100  Level Seattle Center
Thu 06:09:07 PM 45.8819 -115.8169 304° West 158 182 16,100  Level Seattle Center
Thu 06:10:08 PM 45.9083 -115.8678 307° West 158 182 16,100  Level Seattle Center
Thu 06:11:10 PM 45.9319 -115.9219 302° West 158 182 16,100  Level Seattle Center
Thu 06:12:11 PM 45.9586 -115.9736 307° West 158 182 16,100  Level Seattle Center
Thu 06:13:12 PM 45.9828 -116.0275 303° West 159 183 16,100  Level Seattle Center
Thu 06:14:14 PM 46.0083 -116.0806 305° West 159 183 16,100  Level Seattle Center
Thu 06:15:15 PM 46.0356 -116.1328 307° West 160 184 16,100  Level Seattle Center
Thu 06:16:16 PM 46.0692 -116.1947 308° West 161 185 16,100  Level Seattle Center
Thu 06:17:18 PM 46.0978 -116.2453 309° West 162 186 16,100  Level Seattle Center
Thu 06:18:19 PM 46.1269 -116.2958 310° West 162 186 16,100  Level Seattle Center
Thu 06:19:20 PM 46.1561 -116.3469 309° West 163 188 16,100  Level Seattle Center
Thu 06:20:22 PM 46.1858 -116.4000 309° West 167 192 16,100  Level Seattle Center
Thu 06:21:23 PM 46.2122 -116.4511 307° West 166 191 16,100  Level Seattle Center
Thu 06:22:24 PM 46.2400 -116.4994 310° West 162 186 16,100  Level Seattle Center
Thu 06:23:26 PM 46.2667 -116.5492 308° West 160 184 16,100  Level Seattle Center
Thu 06:24:27 PM 46.2947 -116.6003 308° West 160 184 16,100  Level Seattle Center
Thu 06:25:28 PM 46.3275 -116.6636 307° West 160 184 16,100  Level Seattle Center
Thu 06:26:30 PM 46.3556 -116.7144 309° West 161 185 16,100  Level Seattle Center
Thu 06:27:31 PM 46.3817 -116.7653 307° West 161 185 16,100  Level Seattle Center
Thu 06:28:32 PM 46.4083 -116.8169 307° West 161 185 16,100  Level Seattle Center
Thu 06:29:34 PM 46.4347 -116.8711 305° West 162 186 16,100  Level Seattle Center
Thu 06:30:35 PM 46.4619 -116.9247 306° West 162 186 16,100  Level Seattle Center
Thu 06:31:36 PM 46.4903 -116.9797 307° West 166 191 16,100  Level Seattle Center
Thu 06:32:38 PM 46.5194 -117.0356 307° West 171 197 16,100  Level Seattle Center
Thu 06:33:39 PM 46.5486 -117.0903 308° West 172 198 16,100  Level Seattle Center
Thu 06:34:40 PM 46.5769 -117.1453 307° West 172 198 16,100  Level Seattle Center
Thu 06:35:42 PM 46.6047 -117.2167 300° West 169 194 16,100  Level Seattle Center
Thu 06:36:43 PM 46.6269 -117.2769 298° West 169 194 16,100  Level Seattle Center
Thu 06:37:44 PM 46.6497 -117.3381 299° West 169 194 16,100  Level Seattle Center
Thu 06:38:45 PM 46.6714 -117.3969 298° West 169 194 16,100  Level Seattle Center
Thu 06:39:47 PM 46.6928 -117.4550 298° West 168 193 16,100  Level Seattle Center
Thu 06:40:48 PM 46.7133 -117.5114 298° West 163 188 16,100  Level Seattle Center
Thu 06:41:49 PM 46.7347 -117.5689 299° West 163 188 16,100  Level Seattle Center
Thu 06:42:51 PM 46.7592 -117.6331 299° West 162 186 16,100  Level Seattle Center
Thu 06:43:52 PM 46.7792 -117.6892 298° West 159 183 16,100 49 Level Seattle Center
Thu 06:44:53 PM 46.8011 -117.7508 297° West 159 183 16,200  Climbing Seattle Center
Thu 06:45:55 PM 46.8208 -117.8050 298° West 156 180 16,100 -49 Descending Seattle Center
Thu 06:46:56 PM 46.8414 -117.8619 298° West 156 180 16,100  Level Seattle Center
Thu 06:47:57 PM 46.8642 -117.9244 298° West 157 181 16,100  Level Seattle Center
Thu 06:48:59 PM 46.8850 -117.9819 298° West 158 182 16,100 49 Level Seattle Center
Thu 06:50:00 PM 46.9064 -118.0414 298° West 163 188 16,200  Climbing Seattle Center
Thu 06:51:01 PM 46.9269 -118.0994 297° West 163 188 16,100 -98 Descending Seattle Center
Thu 06:52:03 PM 46.9483 -118.1600 297° West 163 188 16,000 -49 Descending Seattle Center
Thu 06:53:04 PM 46.9678 -118.2153 297° West 156 180 16,000  Level Seattle Center
Thu 06:54:05 PM 46.9883 -118.2731 298° West 148 170 16,000  Level Seattle Center
Thu 06:55:07 PM 47.0081 -118.3283 298° West 150 173 16,000 49 Level Seattle Center
Thu 06:56:08 PM 47.0294 -118.3878 298° West 156 180 16,100 49 Climbing Seattle Center
Thu 06:57:09 PM 47.0489 -118.4417 298° West 156 180 16,100  Level Seattle Center
Thu 06:58:11 PM 47.0686 -118.5019 296° West 156 180 16,100 49 Level Seattle Center
Thu 06:59:12 PM 47.0889 -118.5592 298° West 159 183 16,200 49 Climbing Seattle Center
Thu 07:00:13 PM 47.1089 -118.6158 297° West 158 182 16,200  Level Seattle Center
Thu 07:01:14 PM 47.1300 -118.6744 298° West 151 174 16,200 -49 Level Seattle Center
Thu 07:02:16 PM 47.1492 -118.7297 297° West 151 174 16,100  Descending Seattle Center
Thu 07:03:17 PM 47.1686 -118.7869 297° West 154 177 16,200 49 Climbing Seattle Center
Thu 07:04:18 PM 47.1906 -118.8486 298° West 155 178 16,200  Level Seattle Center
Thu 07:05:20 PM 47.2114 -118.9072 298° West 158 182 16,200  Level Seattle Center
Thu 07:06:21 PM 47.2325 -118.9703 296° West 170 196 16,200  Level Seattle Center
Thu 07:07:22 PM 47.2544 -119.0317 298° West 170 196 16,200  Level Seattle Center
Thu 07:08:23 PM 47.2778 -119.1000 297° West 172 198 16,200 -49 Level Seattle Center
Thu 07:09:25 PM 47.2992 -119.1639 296° West 173 199 16,100  Descending Seattle Center
Thu 07:10:26 PM 47.3214 -119.2267 298° West 174 200 16,200  Climbing Seattle Center
Thu 07:11:27 PM 47.3433 -119.2931 296° West 169 194 16,100 -49 Descending Seattle Center
Thu 07:12:28 PM 47.3653 -119.3558 297° West 170 196 16,100 -49 Level Seattle Center
Thu 07:13:30 PM 47.3864 -119.4178 297° West 170 196 16,000  Descending Seattle Center
Thu 07:14:31 PM 47.4083 -119.4822 297° West 166 191 16,100 49 Climbing Seattle Center
Thu 07:15:32 PM 47.4283 -119.5436 296° West 166 191 16,100  Level Seattle Center
Thu 07:16:33 PM 47.4503 -119.6067 297° West 168 193 16,100 -49 Level Seattle Center
Thu 07:17:35 PM 47.4700 -119.6658 296° West 166 191 16,000  Descending Seattle Center
Thu 07:18:36 PM 47.4919 -119.7325 296° West 165 190 16,100  Climbing Seattle Center
Thu 07:19:37 PM 47.5122 -119.7922 297° West 165 190 16,000 -49 Descending Seattle Center
Thu 07:20:38 PM 47.5319 -119.8542 295° West 165 190 16,000  Level Seattle Center
Thu 07:21:39 PM 47.5539 -119.9142 298° West 166 191 16,000 49 Level Seattle Center
Thu 07:22:41 PM 47.5739 -119.9783 295° West 162 186 16,100 49 Climbing Seattle Center
Thu 07:23:42 PM 47.5928 -120.0347 296° West 156 180 16,100  Level Seattle Center
Thu 07:24:43 PM 47.6128 -120.0917 298° West 156 180 16,100  Level Seattle Center
Thu 07:25:44 PM 47.6300 -120.1511 293° West 157 181 16,100  Level Seattle Center
Thu 07:26:46 PM 47.6528 -120.2139 298° West 159 183 16,100  Level Seattle Center
Thu 07:27:47 PM 47.6725 -120.2753 296° West 166 191 16,100  Level Seattle Center
Thu 07:28:48 PM 47.6939 -120.3397 296° West 170 196 16,100  Level Seattle Center
Thu 07:29:49 PM 47.7147 -120.4039 296° West 172 198 16,100  Level Seattle Center
Thu 07:30:50 PM 47.7344 -120.4642 296° West 171 197 16,100  Level Seattle Center
Thu 07:31:52 PM 47.7539 -120.5244 296° West 167 192 16,100  Level Seattle Center
Thu 07:32:53 PM 47.7742 -120.5886 295° West 173 199 16,100  Level Seattle Center
Thu 07:33:54 PM 47.7992 -120.6478 302° West 173 199 16,100  Level Seattle Center
Thu 07:34:55 PM 47.8319 -120.7056 310° West 178 205 16,100 -148 Level Seattle Center
Thu 07:35:56 PM 47.8697 -120.7739 310° West 178 205 15,800 -293 Descending Seattle Center
Thu 07:36:58 PM 47.8928 -120.8472 295° West 189 217 15,500 -244 Descending Seattle Center
Thu 07:37:59 PM 47.9142 -120.9181 294° West 189 217 15,300 -246 Descending Seattle Center
Thu 07:39:00 PM 47.9353 -120.9867 295° West 188 216 15,000 -246 Descending Seattle Center
Thu 07:40:01 PM 47.9553 -121.0592 292° West 188 216 14,800 -197 Descending Seattle Center
Thu 07:41:02 PM 47.9767 -121.1306 294° West 188 216 14,600 -195 Descending Seattle Center
Thu 07:42:04 PM 47.9978 -121.2031 294° West 189 217 14,400 -98 Descending Seattle Center
Thu 07:43:05 PM 48.0200 -121.2744 295° West 190 219 14,400 -49 Level Seattle Center
Thu 07:44:06 PM 48.0394 -121.3444 293° West 187 215 14,300 -148 Descending Seattle Center
Thu 07:45:07 PM 48.0639 -121.4292 293° West 186 214 14,100 -295 Descending Seattle Center
Thu 07:46:08 PM 48.0856 -121.5014 294° West 189 217 13,700 -443 Descending Seattle Center
Thu 07:47:09 PM 48.1075 -121.5742 294° West 191 220 13,200 -492 Descending Seattle Center
Thu 07:48:10 PM 48.1292 -121.6492 293° West 193 222 12,700 -492 Descending Seattle Center
Thu 07:49:11 PM 48.1517 -121.7261 294° West 203 234 12,200 -517 Descending Seattle Center
Thu 07:50:06 PM 48.1717 -121.8028 291° West 201 231 11,700 -522 Descending Seattle Center
Thu 07:51:06 PM 48.1944 -121.8797 294° West 199 229 11,200 -545 Descending Seattle Center
Thu 07:52:07 PM 48.2164 -121.9539 294° West 198 228 10,600 -496 Descending Seattle Center
Thu 07:53:07 PM 48.2381 -122.0281 294° West 198 228 10,200 -347 Descending Seattle Center
Thu 07:54:08 PM 48.2606 -122.1053 294° West 192 221 9,900 -397 Descending Seattle Center
Thu 07:55:08 PM 48.2803 -122.1808 291° West 191 220 9,400 -429 Descending Seattle Center
Thu 07:55:18 PM 48.2844 -122.1894 306° West 192 221 9,400 -393 Level Seattle Center
Thu 07:56:09 PM 48.3011 -122.2522 292° West 197 227 9,000 -492 Descending Seattle Center
Thu 07:56:19 PM 48.3069 -122.2653 304° West 194 223 8,900 -592 Descending Seattle Center
Thu 07:57:20 PM 48.3275 -122.3414 292° West 195 224 8,300 -629 Descending Seattle Center
Thu 07:58:04 PM 48.3447 -122.3944 296° West 195 224 7,800 -590 Descending Seattle Center
Thu 07:58:21 PM 48.3572 -122.4069 326° Northwest 203 234 7,700 -689 Descending Seattle Center
Thu 07:59:05 PM 48.3994 -122.4161 352° North 196 226 7,100 -787 Descending Seattle Center
Thu 07:59:22 PM 48.4117 -122.4200 348° North 200 230 6,900 -800 Descending Seattle Center
Thu 08:00:05 PM 48.4508 -122.4333 347° North 190 219 6,300 -590 Descending Seattle Center
Thu 08:00:23 PM 48.4617 -122.4372 347° North 189 217 6,300 -197 Level Seattle Center
Thu 08:01:06 PM 48.4967 -122.4467 350° North 165 190 6,100 -194 Descending Seattle Center
Thu 08:01:25 PM 48.5072 -122.4500 348° North 174 200 6,100  Level Seattle Center
Thu 08:02:07 PM 48.5444 -122.4592 351° North 173 199 6,100  Level Seattle Center
Thu 08:02:26 PM 48.5553 -122.4622 349° North 172 198 6,100  Level Seattle Center
Thu 08:03:07 PM 48.5997 -122.4742 350° North 191 220 6,100  Level Seattle Center
Thu 08:03:27 PM 48.6075 -122.4761 351° North 185 213 6,100  Level Seattle Center
Thu 08:04:28 PM 48.6583 -122.4928 348° North 185 213 6,100  Level Seattle Center
Thu 08:05:29 PM 48.7186 -122.5150 346° North 186 214 6,100  Level Seattle Center
Thu 08:06:30 PM 48.7681 -122.5297 349° North 185 213 6,100  Level Seattle Center
Thu 08:07:31 PM 48.8197 -122.5450 349° North 186 214 6,100 -293 Level Seattle Center
Thu 08:08:33 PM 48.8611 -122.5050 32° Northeast 200 230 5,500 -537 Descending Seattle Center
Thu 08:09:34 PM 48.8964 -122.4461 48° Northeast 198 228 5,000 -689 Descending Seattle Center
Thu 08:10:35 PM 48.9233 -122.3947 51° Northeast 178 205 4,100 -443 Descending Seattle Center
Thu 08:11:36 PM 48.9458 -122.3367 59° Northeast 165 190 4,100 -641 Level Seattle Center
Thu 08:12:46 PM 48.9500 -122.2667 85° East 120 138 2,700 -1,108 Descending Vancouver Center
Thu 08:13:46 PM 48.9833 -122.2667 360° North 130 150 1,700 -850 Descending Vancouver Center
Thu 08:14:46 PM 49.0167 -122.3000 327° Northwest 110 127 1,000 -600 Descending Vancouver Center
Thu 08:15:46 PM 49.0167 -122.3167 270° West 80 92 500 -400 Descending Vancouver Center
Thu 08:16:46 PM 49.0000 -122.3500 233° Southwest 70 81 200 -150 Descending Vancouver Center
Thu 08:17:46 PM 49.0167 -122.3500 360° North 20 23 200  Level Vancouver Center

Login

Don't have an account? Register now (free) for customized features, flight alerts, and more!